createdAt,value
2019-03-31T00:03:30.300Z,99.99
2019-03-31T00:08:25.918Z,99.99
2019-03-31T00:13:21.784Z,99.99
2019-03-31T00:18:17.698Z,99.99
2019-03-31T00:23:14.398Z,99.99
2019-03-31T00:28:09.368Z,99.99
2019-03-31T00:33:05.153Z,99.99
2019-03-31T00:38:01.669Z,99.99
2019-03-31T00:42:57.409Z,99.99
2019-03-31T00:47:53.239Z,99.99
2019-03-31T00:52:50.813Z,99.99
2019-03-31T00:57:46.267Z,99.99
2019-03-31T01:02:42.943Z,99.99
2019-03-31T01:07:38.577Z,99.99
2019-03-31T01:12:34.394Z,99.99
2019-03-31T01:17:31.041Z,99.99
2019-03-31T01:22:26.954Z,99.99
2019-03-31T01:27:22.639Z,99.99
2019-03-31T01:32:19.093Z,99.99
2019-03-31T01:37:15.656Z,99.99
2019-03-31T01:42:12.146Z,99.99
2019-03-31T01:47:07.709Z,99.99
2019-03-31T01:52:03.577Z,99.99
2019-03-31T01:56:59.068Z,99.99
2019-03-31T02:02:04.125Z,99.99
2019-03-31T02:06:54.284Z,99.99
2019-03-31T02:11:50.231Z,99.99
2019-03-31T02:16:45.530Z,99.99
2019-03-31T02:21:41.655Z,99.99
2019-03-31T02:26:37.405Z,99.99
2019-03-31T02:31:33.100Z,99.99
2019-03-31T02:36:28.890Z,99.99
2019-03-31T02:41:24.536Z,99.99
2019-03-31T02:46:20.262Z,99.99
2019-03-31T02:51:15.985Z,99.99
2019-03-31T02:56:13.157Z,99.99
2019-03-31T03:01:08.524Z,99.99
2019-03-31T03:06:03.989Z,99.99
2019-03-31T03:10:59.716Z,99.99
2019-03-31T03:15:55.137Z,99.99
2019-03-31T03:20:51.948Z,99.99
2019-03-31T03:25:55.755Z,99.99
2019-03-31T03:30:46.608Z,99.99
2019-03-31T03:35:42.467Z,99.99
2019-03-31T03:40:38.800Z,99.99
2019-03-31T03:45:34.516Z,99.99
2019-03-31T03:50:30.306Z,99.99
2019-03-31T03:55:25.852Z,99.99
2019-03-31T04:00:21.323Z,99.99
2019-03-31T04:05:18.267Z,99.99
2019-03-31T04:10:13.856Z,99.99
2019-03-31T04:15:09.571Z,99.99
2019-03-31T04:20:05.408Z,99.99
2019-03-31T04:25:01.042Z,99.99
2019-03-31T04:29:57.810Z,99.99
2019-03-31T04:34:52.980Z,99.99
2019-03-31T04:39:50.341Z,99.99
2019-03-31T04:44:45.870Z,99.99
2019-03-31T04:49:42.925Z,99.99
2019-03-31T04:54:38.321Z,99.99
2019-03-31T04:59:33.966Z,99.99
2019-03-31T05:04:29.672Z,99.99
2019-03-31T05:09:25.823Z,99.99
2019-03-31T05:14:22.399Z,99.99
2019-03-31T05:19:18.877Z,99.99
2019-03-31T05:24:14.481Z,99.99
2019-03-31T05:29:09.996Z,99.99
2019-03-31T05:34:18.505Z,99.99
2019-03-31T05:39:04.816Z,99.99
2019-03-31T05:44:05.844Z,99.99
2019-03-31T05:49:00.300Z,99.99
2019-03-31T05:53:56.071Z,99.99
2019-03-31T05:58:51.578Z,99.99
2019-03-31T06:03:47.161Z,99.99
2019-03-31T06:08:43.165Z,99.99
2019-03-31T06:13:38.742Z,99.99
2019-03-31T06:18:35.629Z,99.99
2019-03-31T06:23:31.196Z,99.99
2019-03-31T06:28:27.300Z,99.99
2019-03-31T06:33:23.238Z,99.99
2019-03-31T06:38:18.883Z,99.99
2019-03-31T06:43:15.197Z,99.99
2019-03-31T06:48:11.184Z,99.99
2019-03-31T06:53:07.154Z,99.99
2019-03-31T06:58:04.358Z,99.99
2019-03-31T07:03:00.153Z,99.99
2019-03-31T07:07:55.830Z,99.99
2019-03-31T07:12:52.007Z,99.99
2019-03-31T07:17:48.368Z,99.99
2019-03-31T07:22:45.709Z,99.99
2019-03-31T07:27:41.747Z,99.99
2019-03-31T07:32:38.841Z,99.99
2019-03-31T07:37:46.643Z,99.99
2019-03-31T07:42:34.182Z,99.99
2019-03-31T07:47:30.478Z,99.99
2019-03-31T07:52:26.019Z,99.99
2019-03-31T07:57:21.705Z,99.99
2019-03-31T08:02:19.145Z,99.99
2019-03-31T08:07:14.262Z,99.99
2019-03-31T08:12:10.768Z,99.99
2019-03-31T08:17:06.335Z,99.99
2019-03-31T08:22:02.327Z,99.99
2019-03-31T08:26:59.166Z,99.99
2019-03-31T08:31:54.582Z,99.99
2019-03-31T08:36:51.244Z,99.99
2019-03-31T08:41:47.675Z,99.99
2019-03-31T08:46:43.173Z,99.99
2019-03-31T08:51:38.506Z,99.99
2019-03-31T08:56:34.689Z,99.99
2019-03-31T09:01:31.549Z,99.99
2019-03-31T09:06:27.917Z,99.99
2019-03-31T09:11:23.710Z,99.99
2019-03-31T09:16:19.813Z,99.99
2019-03-31T09:21:16.054Z,99.99
2019-03-31T09:26:11.483Z,99.99
2019-03-31T09:31:07.715Z,99.99
2019-03-31T09:36:15.585Z,99.99
2019-03-31T09:41:04.219Z,99.99
2019-03-31T09:46:01.198Z,99.99
2019-03-31T09:50:56.708Z,99.99
2019-03-31T09:55:52.520Z,99.99
2019-03-31T10:00:49.332Z,99.99
2019-03-31T10:05:47.902Z,99.99
2019-03-31T10:10:43.415Z,99.99
2019-03-31T10:15:40.835Z,99.99
2019-03-31T10:20:36.202Z,99.99
2019-03-31T10:25:32.916Z,99.99
2019-03-31T10:30:29.431Z,99.99
2019-03-31T10:35:24.821Z,99.99
2019-03-31T10:40:21.538Z,99.99
2019-03-31T10:45:18.428Z,99.99
2019-03-31T10:50:13.925Z,99.99
2019-03-31T10:55:09.706Z,99.99
2019-03-31T11:00:05.919Z,99.99
2019-03-31T11:05:02.640Z,99.99
2019-03-31T11:09:57.576Z,99.99
2019-03-31T11:14:53.439Z,99.99
2019-03-31T11:19:48.471Z,99.99
2019-03-31T11:24:43.848Z,99.99
2019-03-31T11:29:39.835Z,99.99
2019-03-31T11:34:35.406Z,99.99
2019-03-31T11:39:31.035Z,99.99
2019-03-31T11:44:27.809Z,99.99
2019-03-31T11:49:23.909Z,99.99
2019-03-31T11:54:20.115Z,99.99
2019-03-31T11:59:16.412Z,99.99
2019-03-31T12:04:12.429Z,97.27
2019-03-31T12:09:08.105Z,99.22
2019-03-31T12:14:03.853Z,99.03
2019-03-31T12:18:59.485Z,96.65
2019-03-31T12:23:56.076Z,94.98
2019-03-31T12:28:54.055Z,93.03
2019-03-31T12:33:50.000Z,89.26
2019-03-31T12:38:47.385Z,88.84
2019-03-31T12:43:43.358Z,88.45
2019-03-31T12:48:38.993Z,89.93
2019-03-31T12:53:35.055Z,89.03
2019-03-31T12:58:32.308Z,91.50
2019-03-31T13:03:27.423Z,90.64
2019-03-31T13:08:23.112Z,89.84
2019-03-31T13:13:19.770Z,88.17
2019-03-31T13:18:15.420Z,86.26
2019-03-31T13:23:11.828Z,82.78
2019-03-31T13:28:08.885Z,79.67
2019-03-31T13:33:05.092Z,80.43
2019-03-31T13:38:10.915Z,81.82
2019-03-31T13:42:59.487Z,83.64
2019-03-31T13:47:58.525Z,82.40
2019-03-31T13:52:53.539Z,81.06
2019-03-31T13:57:49.850Z,79.53
2019-03-31T14:02:46.327Z,77.38
2019-03-31T14:07:43.621Z,77.47
2019-03-31T14:12:39.141Z,76.81
2019-03-31T14:17:36.297Z,74.99
2019-03-31T14:22:32.393Z,76.86
2019-03-31T14:27:28.455Z,76.77
2019-03-31T14:32:25.279Z,77.09
2019-03-31T14:37:20.701Z,76.04
2019-03-31T14:42:15.923Z,77.44
2019-03-31T14:47:11.420Z,78.96
2019-03-31T14:52:08.014Z,78.86
2019-03-31T14:57:03.507Z,78.01
2019-03-31T15:01:59.244Z,76.96
2019-03-31T15:06:54.957Z,76.86
2019-03-31T15:11:50.726Z,74.48
2019-03-31T15:16:48.559Z,72.67
2019-03-31T15:21:44.385Z,71.52
2019-03-31T15:26:39.894Z,71.23
2019-03-31T15:31:36.761Z,71.72
2019-03-31T15:36:31.959Z,71.04
2019-03-31T15:41:27.746Z,69.14
2019-03-31T15:46:24.742Z,69.23
2019-03-31T15:51:20.156Z,69.14
2019-03-31T15:56:15.884Z,69.90
2019-03-31T16:01:12.475Z,70.00
2019-03-31T16:06:09.073Z,70.28
2019-03-31T16:11:05.534Z,68.38
2019-03-31T16:16:00.956Z,68.95
2019-03-31T16:20:57.013Z,68.57
2019-03-31T16:25:52.736Z,68.34
2019-03-31T16:30:48.573Z,67.68
2019-03-31T16:35:44.245Z,67.77
2019-03-31T16:40:39.999Z,67.68
2019-03-31T16:45:36.187Z,66.91
2019-03-31T16:50:31.761Z,66.53
2019-03-31T16:55:28.140Z,66.44
2019-03-31T17:00:23.579Z,66.15
2019-03-31T17:05:22.027Z,67.39
2019-03-31T17:10:17.510Z,66.44
2019-03-31T17:15:12.851Z,67.39
2019-03-31T17:20:08.669Z,65.92
2019-03-31T17:25:04.482Z,66.11
2019-03-31T17:30:00.393Z,66.31
2019-03-31T17:34:55.924Z,67.83
2019-03-31T17:40:05.088Z,68.40
2019-03-31T17:44:50.613Z,68.88
2019-03-31T17:49:46.200Z,69.89
2019-03-31T17:54:41.741Z,70.27
2019-03-31T17:59:38.391Z,69.99
2019-03-31T18:04:33.836Z,70.47
2019-03-31T18:09:30.379Z,71.13
2019-03-31T18:14:26.935Z,71.47
2019-03-31T18:19:23.611Z,72.24
2019-03-31T18:24:19.032Z,72.90
2019-03-31T18:29:15.643Z,73.38
2019-03-31T18:34:12.288Z,74.62
2019-03-31T18:39:07.834Z,75.15
2019-03-31T18:44:03.237Z,75.91
2019-03-31T18:48:58.969Z,76.96
2019-03-31T18:53:54.531Z,77.62
2019-03-31T18:58:50.455Z,78.38
2019-03-31T19:03:46.468Z,79.01
2019-03-31T19:08:41.821Z,79.86
2019-03-31T19:13:38.414Z,79.86
2019-03-31T19:18:33.903Z,81.01
2019-03-31T19:23:29.537Z,81.58
2019-03-31T19:28:24.968Z,82.49
2019-03-31T19:33:20.761Z,82.39
2019-03-31T19:38:16.422Z,81.73
2019-03-31T19:43:11.898Z,83.25
2019-03-31T19:48:08.032Z,82.10
2019-03-31T19:53:03.712Z,80.45
2019-03-31T19:58:00.378Z,82.07
2019-03-31T20:02:55.695Z,81.40
2019-03-31T20:07:51.481Z,81.59
2019-03-31T20:12:46.942Z,80.74
2019-03-31T20:17:43.555Z,81.40
2019-03-31T20:22:38.822Z,81.49
2019-03-31T20:27:34.442Z,81.55
2019-03-31T20:32:30.956Z,81.84
2019-03-31T20:37:26.179Z,81.74
2019-03-31T20:42:22.615Z,82.31
2019-03-31T20:47:19.216Z,82.78
2019-03-31T20:52:14.549Z,84.21
2019-03-31T20:57:10.146Z,83.78
2019-03-31T21:02:05.706Z,85.11
2019-03-31T21:07:01.401Z,85.97
2019-03-31T21:11:56.835Z,86.44
2019-03-31T21:16:53.144Z,86.44
2019-03-31T21:21:48.581Z,86.44
2019-03-31T21:26:46.474Z,87.87
2019-03-31T21:31:41.469Z,88.29
2019-03-31T21:36:37.027Z,88.20
2019-03-31T21:41:35.116Z,88.01
2019-03-31T21:46:30.675Z,89.25
2019-03-31T21:51:28.224Z,88.77
2019-03-31T21:56:23.418Z,90.38
2019-03-31T22:06:18.294Z,89.53
2019-03-31T22:11:13.960Z,89.34
2019-03-31T22:16:09.663Z,90.48
2019-03-31T22:21:05.443Z,90.19
2019-03-31T22:26:01.213Z,90.86
2019-03-31T22:30:57.650Z,90.62
2019-03-31T22:35:54.776Z,91.09
2019-03-31T22:40:50.245Z,91.00
2019-03-31T22:45:45.907Z,91.85
2019-03-31T22:50:41.479Z,92.14
2019-03-31T22:55:37.054Z,93.08
2019-03-31T23:00:32.765Z,93.37
2019-03-31T23:05:28.001Z,93.37
2019-03-31T23:10:23.537Z,94.51
2019-03-31T23:15:19.751Z,95.07
2019-03-31T23:20:15.477Z,94.89
2019-03-31T23:25:11.229Z,95.74
2019-03-31T23:30:06.768Z,95.74
2019-03-31T23:35:03.635Z,96.31
2019-03-31T23:39:58.974Z,96.12
2019-03-31T23:44:55.275Z,96.03
2019-03-31T23:49:50.969Z,96.22
2019-03-31T23:54:46.606Z,96.87
2019-03-31T23:59:42.237Z,97.16
